Allerton, Iowa
Current Conditions -  °F | °C
As of 6:15 AM on Thursday 18 Dec 2014 (Local Time) from KCNC Reporting Station
Unknown Precip Unknown Precip  
Wind Chill: 16°   Ceiling: 3200
Heat Index: 23°   Visibility: 5mi
Dew Point: 19°   Wind: 6mph
Humidity: 86%   Direction: 110°ESE
Pressure: 30.26"   Gusts: NA
Location:  40.71°N, 93.37°W
Report Text: KCNC 181215Z AUTO 11005KT 5SM -UP OVC032 M05/M07 A3026 RMK AO2
Loading
Personal Weather Stations






























Interactive Weather Map New forecast layout! Learn more

10-Day Weather Forecast

Advertisements
Track Severe Weather on mobile